createdAt,value
2019-04-14T17:05:38.925Z,14.63
2019-04-14T17:08:07.031Z,15.25
2019-04-14T17:10:35.758Z,34.98
2019-04-14T17:13:04.846Z,19.98
2019-04-14T17:15:38.403Z,24.02
2019-04-14T17:18:15.640Z,20.68
2019-04-14T17:21:03.926Z,21.30
2019-04-14T17:23:40.067Z,20.37
2019-04-14T17:26:10.979Z,21.30
2019-04-14T17:28:58.646Z,22.85
2019-04-14T17:31:45.024Z,27.05
2019-04-14T17:34:24.897Z,31.17
2019-04-14T17:36:59.103Z,28.57
2019-04-14T17:39:34.056Z,61.95
2019-04-14T17:45:25.636Z,49.27
2019-04-14T17:51:11.429Z,36.08
2019-04-14T17:53:54.107Z,50.58
2019-04-14T17:56:31.262Z,43.28
2019-04-14T17:59:08.583Z,33.25
2019-04-14T18:01:50.835Z,31.23
2019-04-14T18:04:38.927Z,52.78
2019-04-14T18:07:23.019Z,33.98
2019-04-14T18:09:55.488Z,62.67
2019-04-14T18:12:32.980Z,69.87
2019-04-14T18:15:21.990Z,33.53
2019-04-14T18:18:13.783Z,21.00
2019-04-14T18:20:45.722Z,28.07
2019-04-14T18:43:37.933Z,43.83
2019-04-14T18:46:23.711Z,55.48
2019-04-14T18:49:04.515Z,65.72
2019-04-14T18:51:51.411Z,67.67
2019-04-14T18:54:34.874Z,61.15
2019-04-14T19:06:42.133Z,72.35
2019-04-14T19:09:32.629Z,64.17
2019-04-14T19:15:16.008Z,57.38
2019-04-14T19:17:57.559Z,49.75
2019-04-14T19:20:36.649Z,48.65
2019-04-14T19:23:16.676Z,43.20
2019-04-14T19:25:56.311Z,50.83
2019-04-14T19:28:34.145Z,45.28
2019-04-14T19:31:07.197Z,36.95
2019-04-14T19:33:41.916Z,33.53
2019-04-14T19:36:17.578Z,42.55
2019-04-14T19:39:05.138Z,30.35
2019-04-14T19:41:46.887Z,32.25
2019-04-14T19:45:03.710Z,28.57
2019-04-14T19:47:52.995Z,26.90
2019-04-14T19:56:28.963Z,22.98
2019-04-14T19:59:02.994Z,25.60
2019-04-14T20:01:48.345Z,15.18
2019-04-14T20:04:24.759Z,20.35
2019-04-14T20:13:47.653Z,16.75
2019-04-14T20:16:41.038Z,17.70
2019-04-14T20:19:31.565Z,18.77
2019-04-14T20:25:17.518Z,19.73
2019-04-14T20:28:04.392Z,20.10
2019-04-14T20:31:01.683Z,18.07
2019-04-14T20:33:40.369Z,20.90
2019-04-14T20:37:15.870Z,18.48
2019-04-14T20:39:53.395Z,19.30
2019-04-14T20:49:03.205Z,20.85
2019-04-14T20:51:42.490Z,18.12
2019-04-14T20:54:22.270Z,17.85
2019-04-14T21:07:03.208Z,16.97
2019-04-14T21:12:35.699Z,16.52
2019-04-14T21:15:18.897Z,14.33
2019-04-14T21:25:25.793Z,17.98
2019-04-14T21:35:20.081Z,15.65
2019-04-14T21:59:03.199Z,12.40
2019-04-14T22:11:46.803Z,15.35
2019-04-14T22:23:42.379Z,15.55
2019-04-14T22:29:37.144Z,13.93
2019-04-14T22:32:14.171Z,12.23
2019-04-14T22:34:53.016Z,12.35
2019-04-14T22:37:30.740Z,12.35
2019-04-14T22:40:11.851Z,9.93
2019-04-14T22:42:52.699Z,10.82
2019-04-14T22:45:33.472Z,11.03
2019-04-14T22:48:13.507Z,10.13
2019-04-14T22:50:48.065Z,10.65
2019-04-14T22:53:25.216Z,8.53
2019-04-14T22:56:03.633Z,9.70
2019-04-14T22:58:41.272Z,8.65
2019-04-14T23:01:19.435Z,10.32
2019-04-14T23:04:00.885Z,8.20
2019-04-14T23:06:39.562Z,9.38
2019-04-14T23:09:21.185Z,9.18
2019-04-14T23:12:08.797Z,8.15
2019-04-14T23:14:54.650Z,9.50
2019-04-14T23:17:36.308Z,8.43
2019-04-14T23:20:18.013Z,8.85
2019-04-14T23:23:08.645Z,8.70
2019-04-14T23:25:52.693Z,9.75
2019-04-14T23:28:32.459Z,8.98
2019-04-14T23:31:13.338Z,8.28
2019-04-14T23:33:53.885Z,8.95
2019-04-14T23:36:33.685Z,11.68
2019-04-14T23:39:14.831Z,9.83
2019-04-14T23:41:55.035Z,12.28
2019-04-14T23:44:34.714Z,10.30
2019-04-14T23:47:15.431Z,8.23
2019-04-14T23:49:56.209Z,7.75
2019-04-14T23:52:36.772Z,11.73
2019-04-14T23:55:17.435Z,8.83
2019-04-14T23:57:57.339Z,8.05
